sensor_id;sensor_type;location;lat;lon;timestamp;pressure;altitude;pressure_sealevel;temperature;humidity
43691;BME280;29293;52.190;21.226;2023-12-07T00:03:16;100698.08;;;-2.21;100.00
43691;BME280;29293;52.190;21.226;2023-12-07T00:18:23;100702.10;;;-2.17;100.00
43691;BME280;29293;52.190;21.226;2023-12-07T00:33:33;100699.67;;;-2.18;100.00
43691;BME280;29293;52.190;21.226;2023-12-07T00:48:46;100705.23;;;-2.16;100.00
43691;BME280;29293;52.190;21.226;2023-12-07T01:03:57;100699.86;;;-2.15;100.00
43691;BME280;29293;52.190;21.226;2023-12-07T01:19:12;100707.05;;;-2.13;100.00
43691;BME280;29293;52.190;21.226;2023-12-07T01:34:24;100711.02;;;-2.12;100.00
43691;BME280;29293;52.190;21.226;2023-12-07T01:49:36;100704.77;;;-2.08;100.00
43691;BME280;29293;52.190;21.226;2023-12-07T02:04:47;100699.14;;;-2.02;100.00
43691;BME280;29293;52.190;21.226;2023-12-07T02:20:15;100694.00;;;-1.96;100.00
43691;BME280;29293;52.190;21.226;2023-12-07T02:36:07;100697.96;;;-1.91;100.00
43691;BME280;29293;52.190;21.226;2023-12-07T02:51:44;100704.90;;;-1.89;100.00
43691;BME280;29293;52.190;21.226;2023-12-07T03:22:45;100706.42;;;-1.84;100.00
43691;BME280;29293;52.190;21.226;2023-12-07T03:38:35;100706.02;;;-1.83;100.00
43691;BME280;29293;52.190;21.226;2023-12-07T03:53:57;100708.35;;;-1.81;100.00
43691;BME280;29293;52.190;21.226;2023-12-07T04:09:13;100716.20;;;-1.78;100.00
43691;BME280;29293;52.190;21.226;2023-12-07T04:24:41;100717.73;;;-1.74;100.00
43691;BME280;29293;52.190;21.226;2023-12-07T04:39:56;100717.33;;;-1.70;100.00
43691;BME280;29293;52.190;21.226;2023-12-07T04:55:13;100717.54;;;-1.68;100.00
43691;BME280;29293;52.190;21.226;2023-12-07T05:10:21;100719.80;;;-1.67;100.00
43691;BME280;29293;52.190;21.226;2023-12-07T05:25:26;100720.34;;;-1.67;100.00
43691;BME280;29293;52.190;21.226;2023-12-07T05:40:37;100729.13;;;-1.68;100.00
43691;BME280;29293;52.190;21.226;2023-12-07T05:55:54;100746.34;;;-1.66;100.00
43691;BME280;29293;52.190;21.226;2023-12-07T06:11:06;100750.68;;;-1.64;100.00
43691;BME280;29293;52.190;21.226;2023-12-07T06:26:18;100763.19;;;-1.66;100.00
43691;BME280;29293;52.190;21.226;2023-12-07T06:41:25;100774.05;;;-1.64;100.00
43691;BME280;29293;52.190;21.226;2023-12-07T06:56:32;100780.10;;;-1.57;100.00
43691;BME280;29293;52.190;21.226;2023-12-07T07:11:38;100792.80;;;-1.50;100.00
43691;BME280;29293;52.190;21.226;2023-12-07T07:26:45;100803.12;;;-1.41;100.00
43691;BME280;29293;52.190;21.226;2023-12-07T07:41:52;100807.13;;;-1.31;100.00
43691;BME280;29293;52.190;21.226;2023-12-07T07:56:58;100807.99;;;-1.19;100.00
43691;BME280;29293;52.190;21.226;2023-12-07T08:12:06;100809.01;;;-1.03;100.00
43691;BME280;29293;52.190;21.226;2023-12-07T08:27:14;100816.43;;;-0.87;100.00
43691;BME280;29293;52.190;21.226;2023-12-07T08:42:20;100818.68;;;-0.71;100.00
43691;BME280;29293;52.190;21.226;2023-12-07T08:57:27;100834.20;;;-0.61;100.00
43691;BME280;29293;52.190;21.226;2023-12-07T09:12:34;100835.84;;;-0.58;100.00
43691;BME280;29293;52.190;21.226;2023-12-07T09:27:41;100840.15;;;-0.53;100.00
43691;BME280;29293;52.190;21.226;2023-12-07T09:42:49;100832.52;;;-0.48;100.00
43691;BME280;29293;52.190;21.226;2023-12-07T09:57:56;100834.59;;;-0.41;100.00
43691;BME280;29293;52.190;21.226;2023-12-07T10:13:03;100825.70;;;-0.35;100.00
43691;BME280;29293;52.190;21.226;2023-12-07T10:28:09;100832.59;;;-0.32;100.00
43691;BME280;29293;52.190;21.226;2023-12-07T10:43:19;100834.98;;;-0.30;100.00
43691;BME280;29293;52.190;21.226;2023-12-07T10:58:26;100841.54;;;-0.36;100.00
43691;BME280;29293;52.190;21.226;2023-12-07T11:13:35;100838.98;;;-0.28;100.00
43691;BME280;29293;52.190;21.226;2023-12-07T11:28:42;100836.96;;;-0.22;100.00
43691;BME280;29293;52.190;21.226;2023-12-07T11:43:49;100829.45;;;-0.24;100.00
43691;BME280;29293;52.190;21.226;2023-12-07T11:59:00;100832.55;;;-0.31;100.00
43691;BME280;29293;52.190;21.226;2023-12-07T12:14:08;100832.02;;;-0.34;100.00
43691;BME280;29293;52.190;21.226;2023-12-07T12:29:21;100829.90;;;-0.48;100.00
43691;BME280;29293;52.190;21.226;2023-12-07T12:44:29;100834.76;;;-0.64;100.00
43691;BME280;29293;52.190;21.226;2023-12-07T12:59:37;100842.69;;;-0.77;100.00
43691;BME280;29293;52.190;21.226;2023-12-07T13:14:45;100845.14;;;-0.89;100.00
43691;BME280;29293;52.190;21.226;2023-12-07T13:29:52;100852.38;;;-1.06;100.00
43691;BME280;29293;52.190;21.226;2023-12-07T13:45:02;100856.13;;;-1.12;100.00
43691;BME280;29293;52.190;21.226;2023-12-07T14:00:14;100865.35;;;-1.19;100.00
43691;BME280;29293;52.190;21.226;2023-12-07T14:15:22;100875.03;;;-1.23;100.00
43691;BME280;29293;52.190;21.226;2023-12-07T14:43:37;100895.31;;;-1.36;100.00
43691;BME280;29293;52.190;21.226;2023-12-07T14:58:45;100890.38;;;-1.46;100.00
43691;BME280;29293;52.190;21.226;2023-12-07T15:13:52;100887.98;;;-1.57;100.00
43691;BME280;29293;52.190;21.226;2023-12-07T15:28:58;100897.70;;;-1.66;100.00
43691;BME280;29293;52.190;21.226;2023-12-07T15:44:05;100913.10;;;-1.68;100.00
43691;BME280;29293;52.190;21.226;2023-12-07T15:59:12;100922.41;;;-1.73;100.00
43691;BME280;29293;52.190;21.226;2023-12-07T16:14:19;100936.70;;;-1.78;100.00
43691;BME280;29293;52.190;21.226;2023-12-07T16:29:26;100941.73;;;-1.82;100.00
43691;BME280;29293;52.190;21.226;2023-12-07T16:44:33;100946.23;;;-1.90;100.00
43691;BME280;29293;52.190;21.226;2023-12-07T16:59:40;100958.55;;;-1.95;100.00
43691;BME280;29293;52.190;21.226;2023-12-07T17:14:47;100965.57;;;-2.00;100.00
43691;BME280;29293;52.190;21.226;2023-12-07T17:29:54;100961.23;;;-2.09;100.00
43691;BME280;29293;52.190;21.226;2023-12-07T17:45:05;100969.46;;;-2.17;100.00
43691;BME280;29293;52.190;21.226;2023-12-07T18:00:13;100975.27;;;-2.23;100.00
43691;BME280;29293;52.190;21.226;2023-12-07T18:15:20;100969.46;;;-2.27;100.00
43691;BME280;29293;52.190;21.226;2023-12-07T18:30:28;100958.98;;;-2.37;100.00
43691;BME280;29293;52.190;21.226;2023-12-07T18:45:35;100970.29;;;-2.43;100.00
43691;BME280;29293;52.190;21.226;2023-12-07T19:00:42;100983.19;;;-2.42;100.00
43691;BME280;29293;52.190;21.226;2023-12-07T19:15:48;100979.70;;;-2.43;100.00
43691;BME280;29293;52.190;21.226;2023-12-07T19:30:57;100995.08;;;-2.46;100.00
43691;BME280;29293;52.190;21.226;2023-12-07T19:46:04;100998.06;;;-2.49;100.00
43691;BME280;29293;52.190;21.226;2023-12-07T20:01:11;100996.66;;;-2.53;100.00
43691;BME280;29293;52.190;21.226;2023-12-07T20:16:18;101006.48;;;-2.58;100.00
43691;BME280;29293;52.190;21.226;2023-12-07T20:31:26;101011.42;;;-2.64;100.00
43691;BME280;29293;52.190;21.226;2023-12-07T20:46:34;101019.73;;;-2.71;100.00
43691;BME280;29293;52.190;21.226;2023-12-07T21:01:39;101019.55;;;-2.75;100.00
43691;BME280;29293;52.190;21.226;2023-12-07T21:16:48;100998.09;;;-2.81;100.00
43691;BME280;29293;52.190;21.226;2023-12-07T21:31:55;101010.64;;;-2.84;100.00
43691;BME280;29293;52.190;21.226;2023-12-07T21:47:02;101026.41;;;-2.88;100.00
43691;BME280;29293;52.190;21.226;2023-12-07T22:02:11;101033.55;;;-2.93;100.00
43691;BME280;29293;52.190;21.226;2023-12-07T22:17:18;101040.30;;;-3.01;100.00
43691;BME280;29293;52.190;21.226;2023-12-07T22:32:25;101053.80;;;-3.09;100.00
43691;BME280;29293;52.190;21.226;2023-12-07T22:47:32;101049.02;;;-3.13;100.00
43691;BME280;29293;52.190;21.226;2023-12-07T23:02:39;101020.05;;;-3.22;100.00
43691;BME280;29293;52.190;21.226;2023-12-07T23:17:47;101001.58;;;-3.39;100.00
43691;BME280;29293;52.190;21.226;2023-12-07T23:32:52;100995.39;;;-3.58;100.00
43691;BME280;29293;52.190;21.226;2023-12-07T23:47:59;100985.02;;;-3.75;100.00
